createdAt,value
2018-12-12T00:00:24.672Z,3.25
2018-12-12T00:02:53.150Z,3.18
2018-12-12T00:05:21.635Z,3.19
2018-12-12T00:07:50.178Z,3.26
2018-12-12T00:10:19.547Z,3.19
2018-12-12T00:12:49.146Z,3.11
2018-12-12T00:15:18.879Z,3.24
2018-12-12T00:17:48.425Z,3.12
2018-12-12T00:20:17.539Z,3.08
2018-12-12T00:22:46.097Z,3.09
2018-12-12T00:25:14.666Z,3.16
2018-12-12T00:27:43.117Z,3.17
2018-12-12T00:30:11.779Z,3.07
2018-12-12T00:32:40.370Z,3.02
2018-12-12T00:35:09.008Z,3.24
2018-12-12T00:37:37.477Z,3.12
2018-12-12T00:40:06.158Z,3.25
2018-12-12T00:42:34.662Z,3.16
2018-12-12T00:45:03.274Z,3.19
2018-12-12T00:47:31.771Z,3.06
2018-12-12T00:50:00.900Z,3.18
2018-12-12T00:52:29.406Z,3.11
2018-12-12T00:54:58.005Z,3.20
2018-12-12T00:57:26.936Z,3.15
2018-12-12T00:59:55.404Z,3.26
2018-12-12T01:02:23.892Z,3.11
2018-12-12T01:04:52.413Z,3.18
2018-12-12T01:07:20.986Z,3.07
2018-12-12T01:09:50.218Z,3.16
2018-12-12T01:12:18.720Z,3.30
2018-12-12T01:14:47.290Z,3.25
2018-12-12T01:17:15.850Z,3.26
2018-12-12T01:19:44.359Z,3.19
2018-12-12T01:22:12.835Z,3.15
2018-12-12T01:24:41.440Z,3.24
2018-12-12T01:27:09.919Z,3.21
2018-12-12T01:29:38.642Z,3.24
2018-12-12T01:32:07.114Z,3.22
2018-12-12T01:34:35.674Z,3.20
2018-12-12T01:37:04.511Z,3.15
2018-12-12T01:39:33.016Z,3.19
2018-12-12T01:42:01.491Z,3.11
2018-12-12T01:44:29.978Z,3.08
2018-12-12T01:46:58.431Z,3.05
2018-12-12T01:49:27.827Z,3.14
2018-12-12T01:51:56.408Z,3.10
2018-12-12T01:54:24.936Z,3.10
2018-12-12T01:56:53.417Z,3.03
2018-12-12T01:59:22.035Z,3.02
2018-12-12T02:01:50.510Z,3.07
2018-12-12T02:04:19.011Z,3.07
2018-12-12T02:06:47.624Z,3.10
2018-12-12T02:09:16.252Z,3.14
2018-12-12T02:11:44.715Z,3.16
2018-12-12T02:14:13.211Z,3.02
2018-12-12T02:16:41.778Z,3.15
2018-12-12T02:19:10.282Z,3.17
2018-12-12T02:21:38.758Z,3.10
2018-12-12T02:24:08.090Z,3.10
2018-12-12T02:26:36.542Z,3.00
2018-12-12T02:29:05.262Z,3.19
2018-12-12T02:31:33.746Z,3.04
2018-12-12T02:34:02.326Z,3.13
2018-12-12T02:36:31.804Z,3.07
2018-12-12T02:39:00.326Z,3.16
2018-12-12T02:41:28.907Z,3.19
2018-12-12T02:43:57.394Z,3.12
2018-12-12T02:46:26.388Z,3.06
2018-12-12T02:48:55.010Z,3.21
2018-12-12T02:51:23.480Z,3.10
2018-12-12T02:53:52.228Z,3.17
2018-12-12T02:56:20.730Z,3.19
2018-12-12T02:58:50.066Z,3.12
2018-12-12T03:01:18.534Z,3.13
2018-12-12T03:03:47.034Z,3.07
2018-12-12T03:06:15.502Z,3.11
2018-12-12T03:08:44.099Z,3.21
2018-12-12T03:11:14.623Z,3.10
2018-12-12T03:13:43.223Z,3.15
2018-12-12T03:16:12.176Z,3.19
2018-12-12T03:18:40.666Z,3.23
2018-12-12T03:21:09.171Z,3.11
2018-12-12T03:23:37.665Z,3.03
2018-12-12T03:26:06.258Z,3.02
2018-12-12T03:28:34.739Z,3.11
2018-12-12T03:31:03.233Z,3.18
2018-12-12T03:33:31.725Z,3.04
2018-12-12T03:36:00.207Z,3.04
2018-12-12T03:38:28.703Z,3.13
2018-12-12T03:40:57.280Z,3.05
2018-12-12T03:43:25.787Z,3.07
2018-12-12T03:45:54.278Z,3.07
2018-12-12T03:48:22.860Z,3.07
2018-12-12T03:50:51.684Z,3.19
2018-12-12T03:53:20.240Z,3.17
2018-12-12T03:55:48.803Z,3.01
2018-12-12T03:58:17.298Z,3.05
2018-12-12T04:00:45.898Z,3.09
2018-12-12T04:03:14.379Z,2.92
2018-12-12T04:05:42.848Z,2.97
2018-12-12T04:08:11.360Z,2.87
2018-12-12T04:10:39.924Z,3.01
2018-12-12T04:13:08.443Z,3.05
2018-12-12T04:15:37.147Z,2.91
2018-12-12T04:18:05.718Z,3.15
2018-12-12T04:20:34.423Z,3.15
2018-12-12T04:23:02.938Z,3.09
2018-12-12T04:25:31.430Z,3.11
2018-12-12T04:27:59.952Z,3.06
2018-12-12T04:30:28.407Z,3.10
2018-12-12T04:32:56.963Z,2.99
2018-12-12T04:35:25.427Z,3.02
2018-12-12T04:37:54.030Z,3.13
2018-12-12T04:40:22.519Z,3.10
2018-12-12T04:42:51.020Z,3.12
2018-12-12T04:45:19.497Z,2.98
2018-12-12T04:47:48.025Z,2.88
2018-12-12T04:50:16.511Z,3.10
2018-12-12T04:52:45.011Z,3.06
2018-12-12T04:55:13.494Z,3.20
2018-12-12T04:57:41.994Z,3.26
2018-12-12T05:00:10.718Z,3.04
2018-12-12T05:02:39.950Z,3.26
2018-12-12T05:05:08.478Z,3.16
2018-12-12T05:07:37.101Z,3.05
2018-12-12T05:10:06.104Z,3.21
2018-12-12T05:12:34.674Z,3.10
2018-12-12T05:15:03.157Z,3.18
2018-12-12T05:17:31.738Z,3.08
2018-12-12T05:20:00.238Z,3.10
2018-12-12T05:22:28.878Z,3.03
2018-12-12T05:24:57.382Z,3.11
2018-12-12T05:27:25.888Z,3.12
2018-12-12T05:29:54.451Z,3.02
2018-12-12T05:32:23.710Z,3.06
2018-12-12T05:34:52.258Z,3.00
2018-12-12T05:37:20.870Z,3.01
2018-12-12T05:39:49.350Z,2.96
2018-12-12T05:42:17.844Z,3.12
2018-12-12T05:44:46.410Z,2.98
2018-12-12T05:47:14.952Z,3.05
2018-12-12T05:49:43.431Z,3.17
2018-12-12T05:52:12.433Z,3.12
2018-12-12T05:54:40.901Z,3.09
2018-12-12T05:57:09.373Z,3.12
2018-12-12T05:59:37.973Z,3.18
2018-12-12T06:02:06.562Z,3.08
2018-12-12T06:04:35.625Z,3.16
2018-12-12T06:07:06.213Z,3.26
2018-12-12T06:09:35.425Z,3.03
2018-12-12T06:12:05.249Z,2.94
2018-12-12T06:14:34.429Z,2.91
2018-12-12T06:17:03.330Z,3.13
2018-12-12T06:19:31.943Z,3.02
2018-12-12T06:22:00.722Z,3.12
2018-12-12T06:24:29.626Z,3.03
2018-12-12T06:26:58.402Z,2.95
2018-12-12T06:29:27.423Z,2.97
2018-12-12T06:31:56.306Z,2.94
2018-12-12T06:34:25.173Z,3.03
2018-12-12T06:36:54.824Z,2.78
2018-12-12T06:39:23.485Z,3.13
2018-12-12T06:41:52.606Z,3.10
2018-12-12T06:44:21.387Z,3.06
2018-12-12T06:46:50.062Z,3.16
2018-12-12T06:49:18.838Z,3.19
2018-12-12T06:51:47.802Z,3.19
2018-12-12T06:54:16.497Z,3.18
2018-12-12T06:56:46.070Z,3.06
2018-12-12T06:59:14.650Z,2.94
2018-12-12T07:01:43.714Z,2.97
2018-12-12T07:04:12.299Z,2.83
2018-12-12T07:06:40.968Z,2.84
2018-12-12T07:09:10.855Z,2.68
2018-12-12T07:11:39.355Z,2.47
2018-12-12T07:14:07.845Z,2.54
2018-12-12T07:16:36.361Z,2.64
2018-12-12T07:19:04.930Z,2.66
2018-12-12T07:21:33.458Z,2.47
2018-12-12T07:24:01.957Z,2.57
2018-12-12T07:26:30.489Z,2.61
2018-12-12T07:28:58.998Z,2.64
2018-12-12T07:31:27.507Z,2.62
2018-12-12T07:34:00.947Z,2.80
2018-12-12T07:36:26.991Z,2.73
2018-12-12T07:38:55.530Z,2.74
2018-12-12T07:41:24.470Z,2.78
2018-12-12T07:43:53.009Z,2.60
2018-12-12T07:46:22.475Z,2.61
2018-12-12T07:48:51.255Z,2.70
2018-12-12T07:51:19.794Z,2.70
2018-12-12T07:53:48.446Z,2.85
2018-12-12T07:56:16.958Z,2.75
2018-12-12T07:58:45.429Z,2.84
2018-12-12T08:01:14.049Z,2.78
2018-12-12T08:03:42.510Z,2.69
2018-12-12T08:06:11.015Z,2.59
2018-12-12T08:08:39.638Z,2.72
2018-12-12T08:11:08.114Z,2.72
2018-12-12T08:13:36.571Z,2.77
2018-12-12T08:16:05.242Z,2.70
2018-12-12T08:18:33.698Z,2.63
2018-12-12T08:21:02.408Z,2.85
2018-12-12T08:23:31.322Z,2.79
2018-12-12T08:25:59.934Z,2.75
2018-12-12T08:28:28.506Z,2.76
2018-12-12T08:30:57.070Z,2.69
2018-12-12T08:33:25.560Z,2.78
2018-12-12T08:35:54.050Z,3.01
2018-12-12T08:38:22.578Z,2.87
2018-12-12T08:40:51.077Z,2.98
2018-12-12T08:43:19.618Z,2.91
2018-12-12T08:45:48.145Z,2.92
2018-12-12T08:48:16.705Z,2.79
2018-12-12T08:50:45.212Z,2.83
2018-12-12T08:53:13.878Z,2.72
2018-12-12T08:55:42.378Z,2.95
2018-12-12T08:58:10.851Z,2.71
2018-12-12T09:00:39.353Z,2.77
2018-12-12T09:03:07.804Z,2.80
2018-12-12T09:05:36.333Z,2.73
2018-12-12T09:08:04.827Z,2.94
2018-12-12T09:10:33.538Z,2.79
2018-12-12T09:13:01.985Z,2.64
2018-12-12T09:15:30.475Z,2.86
2018-12-12T09:17:59.148Z,2.68
2018-12-12T09:20:27.651Z,2.88
2018-12-12T09:22:56.138Z,2.80
2018-12-12T09:25:24.619Z,2.64
2018-12-12T09:27:53.131Z,2.70
2018-12-12T09:30:21.750Z,2.84
2018-12-12T09:32:50.253Z,2.86
2018-12-12T09:35:18.738Z,2.77
2018-12-12T09:37:47.245Z,3.02
2018-12-12T09:40:15.775Z,2.99
2018-12-12T09:42:44.332Z,3.01
2018-12-12T09:45:12.847Z,2.95
2018-12-12T09:47:41.592Z,2.90
2018-12-12T09:50:10.092Z,2.99
2018-12-12T09:52:38.690Z,2.66
2018-12-12T09:55:07.335Z,2.70
2018-12-12T09:57:36.377Z,3.04
2018-12-12T10:00:05.410Z,3.07
2018-12-12T10:02:34.518Z,2.94
2018-12-12T10:05:03.071Z,3.11
2018-12-12T10:07:31.559Z,3.11
2018-12-12T10:10:00.104Z,3.14
2018-12-12T10:12:28.631Z,3.27
2018-12-12T10:14:57.222Z,3.34
2018-12-12T10:17:25.697Z,3.35
2018-12-12T10:19:54.328Z,3.19
2018-12-12T10:22:22.867Z,3.21
2018-12-12T10:24:51.343Z,3.18
2018-12-12T10:27:19.977Z,3.21
2018-12-12T10:29:49.229Z,3.12
2018-12-12T10:32:17.732Z,3.30
2018-12-12T10:34:46.299Z,3.42
2018-12-12T10:37:14.797Z,3.47
2018-12-12T10:39:43.292Z,3.50
2018-12-12T10:42:12.049Z,3.47
2018-12-12T10:44:40.604Z,3.57
2018-12-12T10:47:09.095Z,3.73
2018-12-12T10:49:37.656Z,3.55
2018-12-12T10:52:06.241Z,3.63
2018-12-12T10:54:34.727Z,3.53
2018-12-12T10:57:03.233Z,3.76
2018-12-12T10:59:31.735Z,3.69
2018-12-12T11:02:33.038Z,3.35
2018-12-12T11:05:01.560Z,3.36
2018-12-12T11:07:30.095Z,3.47
2018-12-12T11:09:58.716Z,3.80
2018-12-12T11:12:27.209Z,3.46
2018-12-12T11:14:55.721Z,3.53
2018-12-12T11:17:24.270Z,3.47
2018-12-12T11:19:52.867Z,3.33
2018-12-12T11:22:22.013Z,3.38
2018-12-12T11:24:50.513Z,3.40
2018-12-12T11:27:19.332Z,3.44
2018-12-12T11:29:48.754Z,3.30
2018-12-12T11:32:17.223Z,3.45
2018-12-12T11:34:45.708Z,3.34
2018-12-12T11:37:14.210Z,3.44
2018-12-12T11:39:42.760Z,3.40
2018-12-12T11:42:11.286Z,3.33
2018-12-12T11:44:39.779Z,3.29
2018-12-12T11:47:08.324Z,3.43
2018-12-12T11:49:36.811Z,3.35
2018-12-12T11:52:05.572Z,3.49
2018-12-12T11:54:34.823Z,3.18
2018-12-12T11:57:03.641Z,3.22
2018-12-12T11:59:32.185Z,3.68
2018-12-12T12:02:00.683Z,5.67
2018-12-12T12:04:29.202Z,5.69
2018-12-12T12:06:57.679Z,7.05
2018-12-12T12:09:26.183Z,6.64
2018-12-12T12:11:54.833Z,5.93
2018-12-12T12:14:23.338Z,5.99
2018-12-12T12:16:51.848Z,6.70
2018-12-12T12:19:21.617Z,5.57
2018-12-12T12:21:50.082Z,5.46
2018-12-12T12:24:18.686Z,5.51
2018-12-12T12:26:50.532Z,5.08
2018-12-12T12:29:20.163Z,4.45
2018-12-12T12:31:48.904Z,4.50
2018-12-12T12:34:17.390Z,4.49
2018-12-12T12:36:46.794Z,4.84
2018-12-12T12:39:15.290Z,4.55
2018-12-12T12:41:43.847Z,4.69
2018-12-12T12:44:12.516Z,4.77
2018-12-12T12:46:40.985Z,4.64
2018-12-12T12:49:10.318Z,4.85
2018-12-12T12:51:38.897Z,4.43
2018-12-12T12:54:08.329Z,4.16
2018-12-12T12:56:36.811Z,4.41
2018-12-12T12:59:05.320Z,4.51
2018-12-12T13:01:33.986Z,4.73
2018-12-12T13:04:02.959Z,4.64
2018-12-12T13:06:31.668Z,4.95
2018-12-12T13:09:00.130Z,5.48
2018-12-12T13:11:28.640Z,5.99
2018-12-12T13:13:57.219Z,5.96
2018-12-12T13:16:25.730Z,6.66
2018-12-12T13:18:54.919Z,7.06
2018-12-12T13:21:23.398Z,6.62
2018-12-12T13:23:51.924Z,5.76
2018-12-12T13:26:20.411Z,5.44
2018-12-12T13:28:49.005Z,4.95
2018-12-12T13:31:19.003Z,4.85
2018-12-12T13:33:47.916Z,4.43
2018-12-12T13:36:16.422Z,4.54
2018-12-12T13:38:44.928Z,4.70
2018-12-12T13:41:13.460Z,4.67
2018-12-12T13:43:42.887Z,4.77
2018-12-12T13:46:11.378Z,4.58
2018-12-12T13:48:39.935Z,4.44
2018-12-12T13:51:08.447Z,4.63
2018-12-12T13:53:36.970Z,4.52
2018-12-12T13:56:05.590Z,4.29
2018-12-12T13:58:34.160Z,4.40
2018-12-12T14:01:02.648Z,4.23
2018-12-12T14:03:31.130Z,4.09
2018-12-12T14:05:59.605Z,4.23
2018-12-12T14:08:28.198Z,4.25
2018-12-12T14:10:56.738Z,4.27
2018-12-12T14:13:28.618Z,4.34
2018-12-12T14:15:58.975Z,4.20
2018-12-12T14:18:27.536Z,4.08
2018-12-12T14:20:56.075Z,4.08
2018-12-12T14:23:24.968Z,3.87
2018-12-12T14:25:53.852Z,3.99
2018-12-12T14:28:22.557Z,4.05
2018-12-12T14:30:51.084Z,3.95
2018-12-12T14:33:19.658Z,3.91
2018-12-12T14:35:48.326Z,4.04
2018-12-12T14:38:17.206Z,4.04
2018-12-12T14:40:45.752Z,4.12
2018-12-12T14:43:14.259Z,4.00
2018-12-12T14:45:42.858Z,4.10
2018-12-12T14:48:11.467Z,3.83
2018-12-12T14:50:39.979Z,3.87
2018-12-12T14:53:08.577Z,3.97
2018-12-12T14:55:37.586Z,4.06
2018-12-12T14:58:06.238Z,3.98
2018-12-12T15:00:34.868Z,3.84
2018-12-12T15:03:03.435Z,3.64
2018-12-12T15:05:32.614Z,3.69
2018-12-12T15:08:01.102Z,3.62
2018-12-12T15:10:30.511Z,3.69
2018-12-12T15:12:59.027Z,3.70
2018-12-12T15:15:27.533Z,3.80
2018-12-12T15:17:56.151Z,3.66
2018-12-12T15:20:25.343Z,3.55
2018-12-12T15:22:54.913Z,3.59
2018-12-12T15:25:23.505Z,3.66
2018-12-12T15:27:54.048Z,3.61
2018-12-12T15:30:22.660Z,3.53
2018-12-12T15:32:51.192Z,3.53
2018-12-12T15:35:19.802Z,3.27
2018-12-12T15:37:48.793Z,3.26
2018-12-12T15:40:17.285Z,3.16
2018-12-12T15:42:45.784Z,3.12
2018-12-12T15:45:14.371Z,3.00
2018-12-12T15:47:43.194Z,2.91
2018-12-12T15:50:11.781Z,2.88
2018-12-12T15:52:41.050Z,2.68
2018-12-12T15:55:09.606Z,2.68
2018-12-12T15:57:38.606Z,2.69
2018-12-12T16:00:08.484Z,2.61
2018-12-12T16:02:37.850Z,2.66
2018-12-12T16:05:06.482Z,2.57
2018-12-12T16:07:35.044Z,2.67
2018-12-12T16:10:03.906Z,2.83
2018-12-12T16:12:32.640Z,2.70
2018-12-12T16:15:01.222Z,2.77
2018-12-12T16:17:29.813Z,2.61
2018-12-12T16:20:00.245Z,2.79
2018-12-12T16:22:28.852Z,2.75
2018-12-12T16:24:57.325Z,2.86
2018-12-12T16:27:25.801Z,2.68
2018-12-12T16:29:54.285Z,2.70
2018-12-12T16:32:22.760Z,2.71
2018-12-12T16:34:55.600Z,2.61
2018-12-12T16:37:21.779Z,2.60
2018-12-12T16:39:50.245Z,2.69
2018-12-12T16:42:18.827Z,2.58
2018-12-12T16:44:47.342Z,2.68
2018-12-12T16:47:15.837Z,2.74
2018-12-12T16:49:44.415Z,2.66
2018-12-12T16:52:12.920Z,2.64
2018-12-12T16:54:41.487Z,2.71
2018-12-12T16:57:09.970Z,2.62
2018-12-12T16:59:38.454Z,2.47
2018-12-12T17:02:08.116Z,2.64
2018-12-12T17:04:36.650Z,2.59
2018-12-12T17:07:06.047Z,2.49
2018-12-12T17:09:34.547Z,2.31
2018-12-12T17:12:03.025Z,2.21
2018-12-12T17:14:31.540Z,2.15
2018-12-12T17:17:00.653Z,2.14
2018-12-12T17:19:29.296Z,2.13
2018-12-12T17:21:58.305Z,2.07
2018-12-12T17:24:26.777Z,2.08
2018-12-12T17:26:55.299Z,2.04
2018-12-12T17:29:23.771Z,1.96
2018-12-12T17:31:52.274Z,2.01
2018-12-12T17:34:20.847Z,2.14
2018-12-12T17:36:49.341Z,1.95
2018-12-12T17:39:17.907Z,1.95
2018-12-12T17:41:46.416Z,1.96
2018-12-12T17:44:14.901Z,1.91
2018-12-12T17:46:44.114Z,1.92
2018-12-12T17:49:12.591Z,1.98
2018-12-12T17:51:41.080Z,1.85
2018-12-12T17:54:09.654Z,1.91
2018-12-12T17:56:38.382Z,1.83
2018-12-12T17:59:07.088Z,1.65
2018-12-12T18:01:35.811Z,1.62
2018-12-12T18:04:04.286Z,1.59
2018-12-12T18:06:32.840Z,1.68
2018-12-12T18:09:01.428Z,1.88
2018-12-12T18:11:29.942Z,1.69
2018-12-12T18:14:00.079Z,1.58
2018-12-12T18:16:29.554Z,1.52
2018-12-12T18:18:59.155Z,1.43
2018-12-12T18:21:28.606Z,1.42
2018-12-12T18:23:57.071Z,1.40
2018-12-12T18:26:25.574Z,1.35
2018-12-12T18:28:54.187Z,1.37
2018-12-12T18:31:22.704Z,1.46
2018-12-12T18:33:51.357Z,1.34
2018-12-12T18:36:19.924Z,1.33
2018-12-12T18:38:48.411Z,1.34
2018-12-12T18:41:16.887Z,1.37
2018-12-12T18:43:45.598Z,1.27
2018-12-12T18:46:15.410Z,1.25
2018-12-12T18:48:44.200Z,1.27
2018-12-12T18:51:12.742Z,1.18
2018-12-12T18:53:41.256Z,1.13
2018-12-12T18:56:09.782Z,1.15
2018-12-12T18:58:39.049Z,1.09
2018-12-12T19:01:07.570Z,1.06
2018-12-12T19:03:36.046Z,1.10
2018-12-12T19:06:04.556Z,1.07
2018-12-12T19:08:34.856Z,0.95
2018-12-12T19:11:05.439Z,1.00
2018-12-12T19:13:35.696Z,0.91
2018-12-12T19:16:04.363Z,0.97
2018-12-12T19:18:33.120Z,1.03
2018-12-12T19:21:01.667Z,1.05
2018-12-12T19:23:30.371Z,1.06
2018-12-12T19:25:58.922Z,0.99
2018-12-12T19:28:27.474Z,1.00
2018-12-12T19:30:55.970Z,1.06
2018-12-12T19:33:24.626Z,1.01
2018-12-12T19:35:53.991Z,1.00
2018-12-12T19:38:22.526Z,1.00
2018-12-12T19:40:51.169Z,0.95
2018-12-12T19:43:19.914Z,0.96
2018-12-12T19:45:48.444Z,0.93
2018-12-12T19:48:16.962Z,0.95
2018-12-12T19:50:45.526Z,0.92
2018-12-12T19:53:14.865Z,0.88
2018-12-12T19:55:44.801Z,0.92
2018-12-12T19:58:13.949Z,0.94
2018-12-12T20:00:42.538Z,0.94
2018-12-12T20:03:12.101Z,0.98
2018-12-12T20:05:41.458Z,0.95
2018-12-12T20:08:10.347Z,0.90
2018-12-12T20:10:38.962Z,0.86
2018-12-12T20:13:08.073Z,0.94
2018-12-12T20:15:41.788Z,0.86
2018-12-12T20:18:12.532Z,0.82
2018-12-12T20:20:41.495Z,0.87
2018-12-12T20:23:13.190Z,0.94
2018-12-12T20:25:47.857Z,0.84
2018-12-12T20:28:22.792Z,0.90
2018-12-12T20:31:01.051Z,0.92
2018-12-12T20:33:43.898Z,1.03
2018-12-12T20:36:16.221Z,1.03
2018-12-12T20:38:51.884Z,1.11
2018-12-12T20:41:23.799Z,1.07
2018-12-12T20:43:57.007Z,0.93
2018-12-12T20:46:25.715Z,0.99
2018-12-12T20:48:54.293Z,0.92
2018-12-12T20:51:23.660Z,1.00
2018-12-12T20:56:45.590Z,1.35
2018-12-12T20:59:14.696Z,1.32
2018-12-12T21:01:43.943Z,1.34
2018-12-12T21:04:12.616Z,1.53
2018-12-12T21:09:38.102Z,1.46
2018-12-12T21:12:07.179Z,1.23
2018-12-12T21:14:37.027Z,1.32
2018-12-12T21:17:07.702Z,1.21
2018-12-12T21:19:37.781Z,1.28
2018-12-12T21:22:08.508Z,1.24
2018-12-12T21:24:37.431Z,1.11
2018-12-12T21:27:06.285Z,1.07
2018-12-12T21:29:35.122Z,1.34
2018-12-12T21:32:03.835Z,1.28
2018-12-12T21:34:33.026Z,1.32
2018-12-12T21:37:02.011Z,1.27
2018-12-12T21:39:31.091Z,1.21
2018-12-12T21:41:59.944Z,1.04
2018-12-12T21:44:29.371Z,0.97
2018-12-12T21:46:58.090Z,0.92
2018-12-12T21:49:26.776Z,0.88
2018-12-12T21:51:55.514Z,0.84
2018-12-12T21:54:24.084Z,0.82
2018-12-12T21:56:53.130Z,0.72
2018-12-12T21:59:21.704Z,0.81
2018-12-12T22:01:50.180Z,0.78
2018-12-12T22:04:20.035Z,0.68
2018-12-12T22:06:48.808Z,0.86
2018-12-12T22:09:17.471Z,0.73
2018-12-12T22:11:46.160Z,0.56
2018-12-12T22:14:15.257Z,0.63
2018-12-12T22:16:44.270Z,0.75
2018-12-12T22:19:12.858Z,0.56
2018-12-12T22:21:42.395Z,0.63
2018-12-12T22:24:11.354Z,0.70
2018-12-12T22:26:40.151Z,0.77
2018-12-12T22:29:09.022Z,0.57
2018-12-12T22:31:37.947Z,0.33
2018-12-12T22:34:06.737Z,0.50
2018-12-12T22:36:35.259Z,0.53
2018-12-12T22:39:05.542Z,0.43
2018-12-12T22:41:34.119Z,0.44
2018-12-12T22:44:03.191Z,0.46
2018-12-12T22:46:31.980Z,0.37
2018-12-12T22:49:00.715Z,0.49
2018-12-12T22:51:31.515Z,0.42
2018-12-12T22:54:00.438Z,0.53
2018-12-12T22:56:29.405Z,0.66
2018-12-12T22:58:58.330Z,0.74
2018-12-12T23:01:27.238Z,0.36
2018-12-12T23:04:03.591Z,0.35
2018-12-12T23:06:33.187Z,0.27
2018-12-12T23:09:02.197Z,0.57
2018-12-12T23:11:31.594Z,0.54
2018-12-12T23:14:00.524Z,0.54
2018-12-12T23:16:29.399Z,0.62
2018-12-12T23:18:58.280Z,0.68
2018-12-12T23:21:27.117Z,0.70
2018-12-12T23:23:56.144Z,0.75
2018-12-12T23:26:25.056Z,0.65
2018-12-12T23:28:54.088Z,0.74
2018-12-12T23:31:22.683Z,0.65
2018-12-12T23:33:51.784Z,0.78
2018-12-12T23:36:26.794Z,0.82
2018-12-12T23:38:50.910Z,0.86
2018-12-12T23:41:19.378Z,0.83
2018-12-12T23:43:47.882Z,0.81
2018-12-12T23:46:16.781Z,0.58
2018-12-12T23:48:45.315Z,0.55
2018-12-12T23:51:13.787Z,0.50
2018-12-12T23:53:42.338Z,0.51
2018-12-12T23:56:10.850Z,0.49
2018-12-12T23:58:39.410Z,0.35
